This is the latest recevied weather packets stored in our database for station/object WC4PEM-10. If no packets are shown the sender has not sent any weather packets the latest 1 day(s).
| Time | Temp. | Humidity | Pressure | Rain* | Wind** | Luminosity | Snow |
|---|---|---|---|---|---|---|---|
| 1778075604 | 26.11° C | 79% | 1016.7 hPa | 0 mm | - | - | - |
| 1778075051 | 25.56° C | 82% | 1016.8 hPa | 0 mm | - | - | - |
| 1778074288 | 25° C | 83% | 1016.8 hPa | 0 mm | - | - | - |
| 1778072371 | 23.33° C | 91% | 1016.3 hPa | 0 mm | - | - | - |
| 1778071633 | 22.22° C | 93% | 1016.4 hPa | 0 mm | - | - | - |
| 1778071022 | 21.67° C | 95% | 1016.4 hPa | 0 mm | - | - | - |
| 1778070615 | 21.11° C | 97% | 1016.5 hPa | 0 mm | - | - | - |
| 1778070312 | 20.56° C | 98% | 1016.3 hPa | 0 mm | - | - | - |
| 1778070086 | 20.56° C | 98% | 1016.3 hPa | 0 mm | - | - | - |
| 1778069849 | 20° C | 98% | 1016.2 hPa | 0 mm | - | - | - |
| 1778069786 | 20° C | 98% | 1016.2 hPa | 0 mm | - | - | - |
| 1778069486 | 19.44° C | 98% | 1016.2 hPa | 0 mm | - | - | - |
| 1778069357 | 19.44° C | 98% | 1016.2 hPa | 0 mm | - | - | - |
| 1778069186 | 19.44° C | 98% | 1016.2 hPa | 0 mm | - | - | - |
| 1778068886 | 18.89° C | 98% | 1016.2 hPa | 0 mm | - | - | - |
| 1778068586 | 18.33° C | 98% | 1016.1 hPa | 0 mm | - | - | - |
| 1778068286 | 17.78° C | 98% | 1016.2 hPa | 0 mm | - | - | - |
| 1778067986 | 17.22° C | 98% | 1016.2 hPa | 0 mm | - | - | - |
| 1778067686 | 17.22° C | 98% | 1016.1 hPa | 0 mm | - | - | - |
| 1778067644 | 16.67° C | 97% | 1016 hPa | 0 mm | - | - | - |
| 1778067420 | 16.67° C | 97% | 1016 hPa | 0 mm | - | - | - |
| 1778067386 | 16.67° C | 97% | 1016 hPa | 0 mm | - | - | - |
| 1778067086 | 16.67° C | 97% | 1016 hPa | 0 mm | - | - | - |
| 1778066786 | 16.67° C | 97% | 1015.9 hPa | 0 mm | - | - | - |
| 1778066522 | 16.67° C | 97% | 1015.9 hPa | 0 mm | - | - | - |
* Rain latest hour (hover to see other rain measurements)
** Current wind speed in m/s (hover to see current wind gust speed)